createdAt,value
2023-04-06T00:01:15.178Z,27.70
2023-04-06T00:03:46.110Z,21.73
2023-04-06T00:06:15.991Z,23.70
2023-04-06T00:08:44.931Z,26.27
2023-04-06T00:11:13.546Z,26.50
2023-04-06T00:13:41.117Z,19.73
2023-04-06T00:16:08.843Z,23.10
2023-04-06T00:18:36.202Z,26.60
2023-04-06T00:21:04.477Z,26.50
2023-04-06T00:23:32.254Z,23.20
2023-04-06T00:25:59.841Z,27.50
2023-04-06T00:28:28.037Z,24.63
2023-04-06T00:30:57.005Z,19.73
2023-04-06T00:33:24.918Z,30.23
2023-04-06T00:35:52.883Z,22.13
2023-04-06T00:38:20.262Z,30.57
2023-04-06T00:40:47.686Z,26.93
2023-04-06T00:43:15.516Z,27.60
2023-04-06T00:45:43.538Z,23.20
2023-04-06T00:48:11.076Z,22.93
2023-04-06T00:50:38.492Z,22.07
2023-04-06T00:53:06.119Z,24.00
2023-04-06T00:55:33.628Z,25.77
2023-04-06T00:58:02.443Z,24.23
2023-04-06T01:00:30.209Z,23.80
2023-04-06T01:02:57.953Z,26.50
2023-04-06T01:05:25.709Z,22.83
2023-04-06T01:07:53.261Z,24.47
2023-04-06T01:10:27.636Z,25.67
2023-04-06T01:12:55.526Z,25.90
2023-04-06T01:15:23.395Z,25.50
2023-04-06T01:17:51.109Z,22.43
2023-04-06T01:20:18.604Z,24.67
2023-04-06T01:22:46.322Z,22.13
2023-04-06T01:25:13.765Z,29.83
2023-04-06T01:27:41.237Z,21.20
2023-04-06T01:30:09.197Z,23.17
2023-04-06T01:32:36.941Z,26.50
2023-04-06T01:35:04.667Z,24.20
2023-04-06T01:37:33.858Z,23.40
2023-04-06T01:40:01.403Z,24.00
2023-04-06T01:42:34.240Z,23.77
2023-04-06T01:45:02.332Z,25.93
2023-04-06T01:47:32.927Z,24.07
2023-04-06T01:50:00.499Z,25.47
2023-04-06T01:52:28.009Z,24.10
2023-04-06T01:54:55.799Z,22.33
2023-04-06T01:57:23.451Z,23.00
2023-04-06T01:59:51.169Z,23.47
2023-04-06T02:02:18.563Z,22.73
2023-04-06T02:04:46.553Z,27.53
2023-04-06T02:07:14.099Z,28.83
2023-04-06T02:09:42.063Z,26.23
2023-04-06T02:12:09.659Z,22.97
2023-04-06T02:14:36.802Z,22.70
2023-04-06T02:17:04.484Z,20.87
2023-04-06T02:19:34.872Z,29.73
2023-04-06T02:22:02.268Z,25.83
2023-04-06T02:24:29.623Z,23.40
2023-04-06T02:27:00.117Z,27.43
2023-04-06T02:29:27.641Z,26.80
2023-04-06T02:31:56.541Z,34.10
2023-04-06T02:34:24.465Z,24.27
2023-04-06T02:36:52.058Z,25.00
2023-04-06T02:39:19.406Z,24.23
2023-04-06T02:41:47.053Z,28.97
2023-04-06T02:44:14.410Z,26.77
2023-04-06T02:46:42.148Z,25.23
2023-04-06T02:49:09.623Z,28.03
2023-04-06T02:51:37.298Z,32.27
2023-04-06T02:54:06.780Z,26.93
2023-04-06T02:56:34.490Z,25.60
2023-04-06T02:59:02.248Z,30.60
2023-04-06T03:01:29.752Z,23.23
2023-04-06T03:03:57.246Z,29.57
2023-04-06T03:06:24.683Z,33.57
2023-04-06T03:08:52.264Z,25.10
2023-04-06T03:11:20.037Z,27.50
2023-04-06T03:13:47.679Z,29.53
2023-04-06T03:16:15.091Z,26.53
2023-04-06T03:18:42.659Z,33.50
2023-04-06T03:21:10.379Z,28.40
2023-04-06T03:23:37.942Z,29.17
2023-04-06T03:26:05.905Z,30.73
2023-04-06T03:28:33.249Z,29.77
2023-04-06T03:31:01.271Z,30.47
2023-04-06T03:33:31.693Z,30.10
2023-04-06T03:35:59.124Z,27.63
2023-04-06T03:38:26.919Z,30.00
2023-04-06T03:40:54.455Z,28.23
2023-04-06T03:43:22.033Z,29.60
2023-04-06T03:45:49.494Z,29.03
2023-04-06T03:48:17.331Z,32.60
2023-04-06T03:50:44.750Z,31.70
2023-04-06T03:53:12.737Z,37.27
2023-04-06T03:55:40.139Z,28.50
2023-04-06T03:58:07.750Z,31.50
2023-04-06T04:00:35.357Z,29.73
2023-04-06T04:03:03.945Z,28.13
2023-04-06T04:05:31.385Z,24.60
2023-04-06T04:07:58.712Z,36.67
2023-04-06T04:10:26.403Z,29.77
2023-04-06T04:12:53.701Z,30.60
2023-04-06T04:15:21.312Z,33.60
2023-04-06T04:17:50.770Z,36.43
2023-04-06T04:20:18.420Z,26.37
2023-04-06T04:22:46.017Z,33.07
2023-04-06T04:25:13.431Z,28.20
2023-04-06T04:27:40.933Z,32.00
2023-04-06T04:30:08.484Z,28.03
2023-04-06T04:32:37.474Z,26.27
2023-04-06T04:35:05.449Z,28.03
2023-04-06T04:37:33.177Z,27.43
2023-04-06T04:40:03.325Z,30.13
2023-04-06T04:42:30.777Z,31.97
2023-04-06T04:44:58.365Z,34.23
2023-04-06T04:47:26.072Z,30.67
2023-04-06T04:49:53.216Z,26.60
2023-04-06T04:52:20.801Z,29.90
2023-04-06T04:54:48.509Z,33.77
2023-04-06T04:57:19.757Z,33.47
2023-04-06T04:59:47.375Z,29.52
2023-04-06T05:02:14.745Z,32.07
2023-04-06T05:04:42.477Z,25.57
2023-04-06T05:07:12.528Z,31.97
2023-04-06T05:09:39.638Z,34.97
2023-04-06T05:12:15.110Z,31.45
2023-04-06T05:14:43.555Z,28.58
2023-04-06T05:17:11.997Z,27.97
2023-04-06T05:19:39.532Z,27.00
2023-04-06T05:22:07.258Z,29.07
2023-04-06T05:24:34.643Z,31.47
2023-04-06T05:27:02.231Z,29.37
2023-04-06T05:29:30.428Z,27.30
2023-04-06T05:31:58.244Z,27.97
2023-04-06T05:34:25.542Z,34.13
2023-04-06T05:36:52.673Z,27.33
2023-04-06T05:39:20.607Z,31.53
2023-04-06T05:41:51.215Z,28.07
2023-04-06T05:44:18.607Z,30.60
2023-04-06T05:46:45.990Z,27.17
2023-04-06T05:49:17.068Z,25.13
2023-04-06T05:51:44.346Z,28.80
2023-04-06T05:54:12.297Z,25.43
2023-04-06T05:56:40.195Z,26.73
2023-04-06T05:59:09.000Z,28.77
2023-04-06T06:01:36.700Z,26.80
2023-04-06T06:04:04.090Z,26.13
2023-04-06T06:06:32.052Z,24.17
2023-04-06T06:09:02.745Z,25.00
2023-04-06T06:11:30.868Z,26.17
2023-04-06T06:13:58.413Z,24.40
2023-04-06T06:16:25.770Z,26.30
2023-04-06T06:18:56.113Z,29.33
2023-04-06T06:21:23.286Z,26.20
2023-04-06T06:23:51.019Z,24.07
2023-04-06T06:26:18.712Z,21.97
2023-04-06T06:28:45.968Z,17.10
2023-04-06T06:31:16.281Z,19.83
2023-04-06T06:33:43.755Z,22.10
2023-04-06T06:36:11.398Z,23.23
2023-04-06T06:38:40.428Z,20.80
2023-04-06T06:41:07.837Z,21.27
2023-04-06T06:43:35.582Z,21.17
2023-04-06T06:46:03.419Z,19.37
2023-04-06T06:48:31.510Z,19.33
2023-04-06T06:50:59.209Z,21.07
2023-04-06T06:53:26.672Z,16.87
2023-04-06T06:55:54.577Z,16.70
2023-04-06T06:58:22.166Z,17.77
2023-04-06T07:00:49.491Z,13.90
2023-04-06T07:03:16.891Z,18.43
2023-04-06T07:05:51.850Z,15.43
2023-04-06T07:08:23.029Z,13.83
2023-04-06T07:10:52.908Z,10.80
2023-04-06T07:13:24.656Z,15.13
2023-04-06T07:18:20.509Z,13.33
2023-04-06T07:20:48.127Z,15.93
2023-04-06T07:23:15.326Z,10.43
2023-04-06T07:25:43.726Z,11.80
2023-04-06T07:28:10.924Z,14.93
2023-04-06T07:30:38.835Z,10.67
2023-04-06T07:33:07.096Z,15.97
2023-04-06T07:35:34.814Z,13.33
2023-04-06T07:38:02.447Z,10.70
2023-04-06T07:40:29.682Z,15.30
2023-04-06T07:42:58.146Z,9.27
2023-04-06T07:45:25.841Z,8.03
2023-04-06T07:47:53.485Z,8.47
2023-04-06T07:50:21.374Z,10.00
2023-04-06T07:52:48.905Z,8.73
2023-04-06T07:55:16.467Z,8.03
2023-04-06T07:57:44.878Z,7.70
2023-04-06T08:00:12.829Z,8.83
2023-04-06T08:02:40.539Z,21.63
2023-04-06T08:05:08.933Z,8.30
2023-04-06T08:07:37.823Z,9.30
2023-04-06T08:10:05.901Z,6.77
2023-04-06T08:12:34.582Z,8.83
2023-04-06T08:15:02.938Z,5.93
2023-04-06T08:17:31.942Z,7.03
2023-04-06T08:19:59.630Z,9.03
2023-04-06T08:22:27.037Z,7.13
2023-04-06T08:24:57.277Z,7.00
2023-04-06T08:27:24.676Z,10.30
2023-04-06T08:29:52.895Z,11.53
2023-04-06T08:32:20.974Z,11.30
2023-04-06T08:34:48.595Z,12.63
2023-04-06T08:37:15.860Z,8.03
2023-04-06T08:39:46.280Z,10.20
2023-04-06T08:42:18.322Z,7.83
2023-04-06T08:44:46.206Z,10.03
2023-04-06T08:47:14.406Z,13.77
2023-04-06T08:49:42.148Z,14.67
2023-04-06T08:52:12.415Z,13.67
2023-04-06T08:54:40.062Z,16.60
2023-04-06T08:57:07.493Z,19.57
2023-04-06T08:59:35.836Z,12.70
2023-04-06T09:02:04.944Z,23.77
2023-04-06T09:04:32.999Z,9.40
2023-04-06T09:07:00.551Z,11.80
2023-04-06T09:09:28.725Z,19.13
2023-04-06T09:11:57.397Z,13.50
2023-04-06T09:14:38.415Z,9.80
2023-04-06T09:17:06.029Z,24.02
2023-04-06T09:19:33.287Z,13.33
2023-04-06T09:22:09.469Z,25.83
2023-04-06T09:24:47.100Z,18.33
2023-04-06T09:27:15.220Z,13.23
2023-04-06T09:29:45.808Z,23.03
2023-04-06T09:32:13.500Z,46.10
2023-04-06T09:34:41.101Z,31.80
2023-04-06T09:37:18.415Z,29.73
2023-04-06T09:39:46.538Z,52.17
2023-04-06T09:42:25.191Z,23.07
2023-04-06T09:44:56.014Z,26.10
2023-04-06T09:47:27.771Z,29.90
2023-04-06T09:50:01.496Z,22.87
2023-04-06T09:52:32.519Z,17.03
2023-04-06T09:55:03.361Z,10.93
2023-04-06T09:57:52.717Z,14.10
2023-04-06T10:00:22.967Z,15.23
2023-04-06T10:02:53.763Z,17.10
2023-04-06T10:05:30.120Z,9.88
2023-04-06T10:08:01.099Z,9.10
2023-04-06T10:10:32.453Z,16.05
2023-04-06T10:12:59.860Z,12.23
2023-04-06T10:15:27.974Z,17.20
2023-04-06T10:17:55.684Z,14.70
2023-04-06T10:20:29.094Z,10.33
2023-04-06T10:23:18.074Z,8.43
2023-04-06T10:25:58.692Z,7.60
2023-04-06T10:28:27.013Z,7.13
2023-04-06T10:31:01.928Z,10.97
2023-04-06T10:33:29.895Z,7.17
2023-04-06T10:35:59.752Z,7.77
2023-04-06T10:38:40.516Z,9.50
2023-04-06T10:41:10.391Z,7.10
2023-04-06T10:43:38.396Z,6.70
2023-04-06T10:46:06.588Z,10.97
2023-04-06T10:48:42.061Z,9.07
2023-04-06T10:51:11.391Z,9.27
2023-04-06T10:53:38.715Z,10.70
2023-04-06T10:56:06.872Z,12.23
2023-04-06T10:58:34.056Z,8.47
2023-04-06T11:01:01.917Z,10.47
2023-04-06T11:03:29.236Z,10.27
2023-04-06T11:05:56.742Z,9.37
2023-04-06T11:08:24.546Z,8.87
2023-04-06T11:10:51.738Z,9.30
2023-04-06T11:13:20.858Z,9.20
2023-04-06T11:15:48.358Z,8.13
2023-04-06T11:18:18.774Z,10.30
2023-04-06T11:20:50.210Z,11.33
2023-04-06T11:23:23.858Z,9.90
2023-04-06T11:25:54.884Z,10.50
2023-04-06T11:28:22.297Z,9.65
2023-04-06T11:30:50.171Z,10.93
2023-04-06T11:33:24.203Z,10.80
2023-04-06T11:35:51.747Z,11.97
2023-04-06T11:38:20.564Z,10.13
2023-04-06T11:40:48.116Z,12.13
2023-04-06T11:43:15.378Z,10.43
2023-04-06T11:45:46.056Z,9.47
2023-04-06T11:48:19.744Z,8.90
2023-04-06T11:50:48.403Z,10.33
2023-04-06T11:53:15.816Z,12.70
2023-04-06T11:55:46.678Z,9.80
2023-04-06T11:58:17.504Z,10.63
2023-04-06T12:00:47.772Z,11.10
2023-04-06T12:03:17.331Z,9.73
2023-04-06T12:05:45.504Z,8.97
2023-04-06T12:08:12.869Z,14.87
2023-04-06T12:10:40.250Z,10.57
2023-04-06T12:13:07.689Z,9.37
2023-04-06T12:15:35.088Z,12.20
2023-04-06T12:18:02.503Z,7.90
2023-04-06T12:20:29.863Z,9.10
2023-04-06T12:22:58.240Z,11.77
2023-04-06T12:25:25.540Z,10.27
2023-04-06T12:27:52.829Z,9.70
2023-04-06T12:30:20.065Z,10.23
2023-04-06T12:32:49.646Z,12.03
2023-04-06T12:35:18.390Z,10.23
2023-04-06T12:37:45.684Z,9.20
2023-04-06T12:40:15.683Z,10.63
2023-04-06T12:42:43.441Z,15.23
2023-04-06T12:45:11.233Z,10.47
2023-04-06T12:47:39.327Z,9.73
2023-04-06T12:50:07.548Z,8.63
2023-04-06T12:52:36.942Z,9.67
2023-04-06T12:55:04.889Z,9.20
2023-04-06T12:57:35.521Z,9.03
2023-04-06T13:00:03.486Z,7.80
2023-04-06T13:02:32.493Z,8.50
2023-04-06T13:04:59.984Z,8.77
2023-04-06T13:07:27.588Z,8.60
2023-04-06T13:09:55.529Z,10.57
2023-04-06T13:12:22.827Z,7.53
2023-04-06T13:14:52.623Z,7.53
2023-04-06T13:17:19.945Z,10.23
2023-04-06T13:19:47.343Z,9.70
2023-04-06T13:22:17.747Z,8.97
2023-04-06T13:24:45.052Z,9.80
2023-04-06T13:27:13.293Z,7.97
2023-04-06T13:29:40.484Z,8.83
2023-04-06T13:32:07.839Z,10.23
2023-04-06T13:34:35.108Z,12.67
2023-04-06T13:37:02.227Z,9.30
2023-04-06T13:39:29.698Z,13.10
2023-04-06T13:42:00.636Z,9.77
2023-04-06T13:44:29.790Z,9.67
2023-04-06T13:46:58.144Z,8.77
2023-04-06T13:49:25.264Z,7.80
2023-04-06T13:51:53.042Z,7.50
2023-04-06T13:54:23.340Z,9.60
2023-04-06T13:56:54.781Z,8.33
2023-04-06T13:59:22.388Z,8.90
2023-04-06T14:01:50.141Z,8.07
2023-04-06T14:04:17.678Z,11.20
2023-04-06T14:06:46.364Z,8.47
2023-04-06T14:09:13.732Z,10.20
2023-04-06T14:11:41.087Z,9.70
2023-04-06T14:14:08.559Z,7.63
2023-04-06T14:16:36.193Z,6.87
2023-04-06T14:19:06.286Z,9.83
2023-04-06T14:21:33.557Z,7.30
2023-04-06T14:24:00.583Z,8.43
2023-04-06T14:26:28.179Z,6.63
2023-04-06T14:28:55.677Z,10.10
2023-04-06T14:31:23.309Z,6.87
2023-04-06T14:33:50.782Z,6.60
2023-04-06T14:36:18.642Z,9.13
2023-04-06T14:38:48.233Z,6.40
2023-04-06T14:41:19.875Z,7.30
2023-04-06T14:43:48.360Z,6.43
2023-04-06T14:46:19.741Z,8.80
2023-04-06T14:48:48.248Z,12.00
2023-04-06T14:51:15.815Z,6.80
2023-04-06T14:53:46.949Z,6.23
2023-04-06T14:56:14.841Z,7.43
2023-04-06T14:58:42.803Z,9.17
2023-04-06T15:01:10.288Z,9.83
2023-04-06T15:03:37.978Z,7.37
2023-04-06T15:06:05.714Z,6.83
2023-04-06T15:08:33.438Z,7.07
2023-04-06T15:11:01.528Z,7.23
2023-04-06T15:13:28.798Z,9.10
2023-04-06T15:15:56.292Z,8.00
2023-04-06T15:18:23.672Z,8.47
2023-04-06T15:20:51.168Z,6.40
2023-04-06T15:23:19.415Z,8.73
2023-04-06T15:25:49.369Z,8.50
2023-04-06T15:28:16.576Z,7.80
2023-04-06T15:30:44.010Z,8.80
2023-04-06T15:33:11.536Z,7.00
2023-04-06T15:35:44.450Z,9.10
2023-04-06T15:38:12.155Z,7.90
2023-04-06T15:40:49.483Z,9.13
2023-04-06T15:43:17.218Z,9.13
2023-04-06T15:45:44.648Z,7.20
2023-04-06T15:48:14.824Z,8.03
2023-04-06T15:50:42.119Z,7.20
2023-04-06T15:53:09.481Z,8.03
2023-04-06T15:55:36.687Z,7.00
2023-04-06T15:58:04.108Z,7.63
2023-04-06T16:00:31.822Z,9.53
2023-04-06T16:02:59.294Z,7.43
2023-04-06T16:05:28.417Z,7.97
2023-04-06T16:07:57.390Z,8.20
2023-04-06T16:10:31.787Z,8.07
2023-04-06T16:13:01.361Z,9.03
2023-04-06T16:15:28.743Z,8.43
2023-04-06T16:17:56.151Z,9.47
2023-04-06T16:20:23.649Z,7.10
2023-04-06T16:22:51.129Z,9.10
2023-04-06T16:25:18.501Z,10.60
2023-04-06T16:27:46.706Z,8.17
2023-04-06T16:30:13.973Z,8.73
2023-04-06T16:32:41.203Z,7.80
2023-04-06T16:35:08.788Z,8.37
2023-04-06T16:37:36.774Z,9.30
2023-04-06T16:40:05.153Z,7.20
2023-04-06T16:42:32.704Z,7.73
2023-04-06T16:45:02.956Z,9.70
2023-04-06T16:47:30.557Z,9.03
2023-04-06T16:50:05.780Z,7.60
2023-04-06T16:52:34.099Z,8.87
2023-04-06T16:55:01.842Z,8.93
2023-04-06T16:57:33.256Z,10.60
2023-04-06T17:00:00.814Z,10.45
2023-04-06T17:02:28.522Z,10.27
2023-04-06T17:04:55.920Z,9.03
2023-04-06T17:07:27.247Z,9.47
2023-04-06T17:09:54.825Z,11.43
2023-04-06T17:12:22.177Z,9.43
2023-04-06T17:14:49.502Z,9.63
2023-04-06T17:17:17.822Z,10.60
2023-04-06T17:19:45.157Z,10.17
2023-04-06T17:22:12.583Z,10.47
2023-04-06T17:24:40.126Z,9.33
2023-04-06T17:27:08.262Z,8.27
2023-04-06T17:29:37.075Z,8.37
2023-04-06T17:32:04.462Z,10.07
2023-04-06T17:34:31.883Z,9.13
2023-04-06T17:37:00.859Z,11.03
2023-04-06T17:39:27.635Z,9.67
2023-04-06T17:41:55.126Z,8.50
2023-04-06T17:44:22.457Z,9.60
2023-04-06T17:46:49.969Z,9.17
2023-04-06T17:49:17.703Z,9.07
2023-04-06T17:51:48.800Z,13.40
2023-04-06T17:54:16.484Z,9.18
2023-04-06T17:56:44.438Z,10.20
2023-04-06T17:59:12.172Z,10.93
2023-04-06T18:01:40.287Z,10.50
2023-04-06T18:04:12.306Z,9.00
2023-04-06T18:06:39.699Z,9.30
2023-04-06T18:09:07.290Z,9.30
2023-04-06T18:11:35.524Z,9.70
2023-04-06T18:14:06.886Z,10.10
2023-04-06T18:19:02.313Z,10.97
2023-04-06T18:21:29.343Z,9.00
2023-04-06T18:23:56.770Z,9.67
2023-04-06T18:26:25.298Z,10.73
2023-04-06T18:28:53.006Z,11.47
2023-04-06T18:31:22.257Z,11.20
2023-04-06T18:33:49.654Z,11.80
2023-04-06T18:36:17.520Z,8.77
2023-04-06T18:38:46.648Z,9.83
2023-04-06T18:41:14.697Z,11.30
2023-04-06T18:43:42.659Z,10.77
2023-04-06T18:46:13.952Z,11.37
2023-04-06T18:48:42.133Z,11.75
2023-04-06T18:51:09.893Z,10.87
2023-04-06T18:53:40.632Z,11.53
2023-04-06T18:56:18.691Z,9.93
2023-04-06T18:58:46.845Z,10.53
2023-04-06T19:01:25.131Z,11.03
2023-04-06T19:03:53.610Z,10.80
2023-04-06T19:06:22.054Z,12.13
2023-04-06T19:08:49.318Z,10.00
2023-04-06T19:11:17.315Z,11.17
2023-04-06T19:13:50.611Z,11.53
2023-04-06T19:16:18.860Z,10.53
2023-04-06T19:18:46.589Z,10.13
2023-04-06T19:21:18.256Z,10.70
2023-04-06T19:26:13.836Z,10.60
2023-04-06T19:28:41.269Z,12.13
2023-04-06T19:31:09.340Z,12.27
2023-04-06T19:33:37.535Z,9.80
2023-04-06T19:36:06.118Z,9.87
2023-04-06T19:38:34.140Z,10.40
2023-04-06T19:41:02.274Z,9.87
2023-04-06T19:43:29.443Z,10.97
2023-04-06T19:45:58.581Z,10.83
2023-04-06T19:48:26.159Z,10.97
2023-04-06T19:50:55.230Z,9.77
2023-04-06T19:53:22.805Z,10.93
2023-04-06T19:55:50.391Z,9.97
2023-04-06T19:58:17.759Z,11.27
2023-04-06T20:00:45.309Z,13.80
2023-04-06T20:03:12.933Z,8.10
2023-04-06T20:05:40.835Z,9.33
2023-04-06T20:08:08.062Z,10.80
2023-04-06T20:10:35.962Z,13.70
2023-04-06T20:13:03.441Z,11.60
2023-04-06T20:15:31.597Z,10.77
2023-04-06T20:17:59.014Z,11.63
2023-04-06T20:20:26.549Z,11.03
2023-04-06T20:22:54.212Z,9.40
2023-04-06T20:25:22.703Z,11.70
2023-04-06T20:27:50.282Z,11.13
2023-04-06T20:30:17.741Z,10.23
2023-04-06T20:32:45.444Z,11.57
2023-04-06T20:35:12.766Z,10.30
2023-04-06T20:37:40.314Z,11.67
2023-04-06T20:40:07.974Z,11.60
2023-04-06T20:42:35.485Z,10.20
2023-04-06T20:45:03.808Z,10.77
2023-04-06T20:47:35.226Z,10.30
2023-04-06T20:50:02.451Z,9.63
2023-04-06T20:52:29.620Z,11.30
2023-04-06T20:54:57.245Z,11.57
2023-04-06T20:57:31.464Z,11.67
2023-04-06T20:59:59.261Z,10.23
2023-04-06T21:02:27.262Z,10.77
2023-04-06T21:04:54.821Z,10.90
2023-04-06T21:07:22.353Z,10.13
2023-04-06T21:09:49.476Z,11.93
2023-04-06T21:12:16.761Z,11.10
2023-04-06T21:14:44.242Z,12.67
2023-04-06T21:17:12.429Z,12.77
2023-04-06T21:19:39.839Z,11.40
2023-04-06T21:22:10.092Z,10.67
2023-04-06T21:24:38.108Z,11.07
2023-04-06T21:27:05.341Z,11.23
2023-04-06T21:29:33.323Z,13.30
2023-04-06T21:32:01.542Z,12.90
2023-04-06T21:34:29.481Z,10.87
2023-04-06T21:36:57.471Z,11.83
2023-04-06T21:39:26.191Z,13.43
2023-04-06T21:41:54.082Z,13.93
2023-04-06T21:44:21.689Z,12.60
2023-04-06T21:46:49.323Z,12.20
2023-04-06T21:49:16.665Z,15.33
2023-04-06T21:51:44.676Z,17.23
2023-04-06T21:54:14.816Z,18.30
2023-04-06T21:56:42.373Z,14.63
2023-04-06T21:59:09.942Z,13.13
2023-04-06T22:01:37.350Z,12.70
2023-04-06T22:04:05.248Z,17.20
2023-04-06T22:06:32.698Z,14.27
2023-04-06T22:09:01.073Z,13.17
2023-04-06T22:11:28.439Z,13.30
2023-04-06T22:13:56.485Z,16.53
2023-04-06T22:16:23.790Z,19.30
2023-04-06T22:18:51.253Z,15.43
2023-04-06T22:21:18.734Z,18.37
2023-04-06T22:23:46.190Z,16.60
2023-04-06T22:26:13.632Z,16.93
2023-04-06T22:28:41.142Z,18.67
2023-04-06T22:31:09.280Z,21.20
2023-04-06T22:33:36.566Z,16.70
2023-04-06T22:36:04.006Z,19.50
2023-04-06T22:38:31.589Z,14.47
2023-04-06T22:40:59.091Z,19.33
2023-04-06T22:43:26.385Z,16.40
2023-04-06T22:45:53.816Z,18.90
2023-04-06T22:48:21.272Z,21.23
2023-04-06T22:50:52.190Z,19.03
2023-04-06T22:53:19.925Z,19.53
2023-04-06T22:55:47.287Z,18.37
2023-04-06T22:58:14.994Z,28.13
2023-04-06T23:00:42.493Z,29.23
2023-04-06T23:03:10.507Z,18.33
2023-04-06T23:05:38.407Z,24.53
2023-04-06T23:08:05.925Z,18.07
2023-04-06T23:10:33.419Z,20.27
2023-04-06T23:13:00.952Z,18.77
2023-04-06T23:15:28.120Z,24.47
2023-04-06T23:17:55.440Z,15.90
2023-04-06T23:20:22.904Z,14.17
2023-04-06T23:22:50.164Z,17.73
2023-04-06T23:25:17.494Z,12.67
2023-04-06T23:27:45.944Z,14.97
2023-04-06T23:30:14.167Z,15.20
2023-04-06T23:32:42.004Z,13.13
2023-04-06T23:35:09.608Z,12.93
2023-04-06T23:37:43.307Z,12.97
2023-04-06T23:40:10.763Z,11.20
2023-04-06T23:42:38.278Z,11.03
2023-04-06T23:45:05.789Z,11.47
2023-04-06T23:47:33.187Z,10.90
2023-04-06T23:50:00.596Z,11.10
2023-04-06T23:52:28.323Z,11.97
2023-04-06T23:54:55.686Z,10.83
2023-04-06T23:57:22.972Z,10.90
2023-04-06T23:59:50.884Z,10.70
